Latest Weather Observations for Hay Airport

IDN60801

Issued at 6:05 pm EST Wednesday 23 April 2014 (issued every 30 minutes, with the page automatically refreshed every 10 minutes)

About weather observations | Map of weather stations | Latest weather observations for NSW | Other Formats
Station Details ID: 075019 Name: HAY AIRPORT AWS Lat: -34.54 Lon: 144.83 Height: 92.0 m
Data from the previous 72 hours. | See also: Recent months for locations in New South Wales
Date/Time
EST
Temp
°C
App
Temp
°C
Dew
Point
Rel
Hum
%
Delta-T
°C
Wind Press
QNH
hPa
Press
MSL
hPa
Rain
since 9 am
mm
Dir
 
Spd
km/h
Gust
km/h
Spd
kts
Gust
kts
23/06:00pm 20.3 18.0 8.9 48 6.0 SW 11 13 6 7 1014.1 1013.9 0.2
23/05:30pm 21.7 19.5 9.3 45 6.7 SW 11 13 6 7 1014.1 - 0.2
23/05:00pm 22.4 19.9 9.6 44 6.9 WSW 13 17 7 9 1014.0 - 0.2
23/04:30pm 22.9 19.9 9.3 42 7.4 WSW 15 20 8 11 1014.1 - 0.2
23/04:00pm 23.5 20.5 9.1 40 7.8 SW 15 20 8 11 1014.2 - 0.2
23/03:30pm 24.2 22.0 9.4 39 8.1 WSW 11 19 6 10 1014.0 - 0.2
23/03:00pm 24.0 21.8 9.2 39 8.0 WSW 11 19 6 10 1014.1 1013.9 0.2
23/02:30pm 24.0 20.6 9.2 39 8.0 W 17 24 9 13 1014.3 - 0.2
23/02:00pm 23.9 21.1 9.9 41 7.7 WSW 15 22 8 12 1014.4 - 0.2
23/01:30pm 23.4 22.1 9.8 42 7.4 SSW 7 19 4 10 1014.8 - 0.2
23/01:00pm 23.5 21.5 10.2 43 7.3 W 11 20 6 11 1015.2 - 0.2
23/12:30pm 22.6 21.1 10.7 47 6.6 WSW 9 15 5 8 1015.6 - 0.2
23/12:00pm 22.5 20.5 11.6 50 6.1 SSW 13 20 7 11 1016.1 1016.0 0.2
23/11:30am 22.1 19.3 11.5 51 5.9 WSW 17 26 9 14 1016.4 - 0.2
23/11:00am 21.7 19.9 12.0 54 5.5 WSW 13 17 7 9 1016.5 - 0.2
23/10:30am 21.2 20.1 12.1 56 5.1 SSW 9 13 5 7 1016.6 - 0.0
23/10:00am 19.6 19.0 12.4 63 4.0 SW 7 11 4 6 1016.7 - 0.0
23/09:30am 18.3 18.3 12.5 69 3.2 SSE 4 9 2 5 1016.7 - 0.0
23/09:00am 16.3 14.9 12.3 77 2.2 S 11 15 6 8 1016.7 1016.6 0.0
23/08:30am 15.2 13.5 12.3 83 1.6 S 13 17 7 9 1016.7 - 0.0
23/08:00am 13.7 13.1 12.4 92 0.7 SW 7 11 4 6 1016.4 - 0.0
23/07:30am 13.1 11.9 11.7 91 0.7 WSW 9 13 5 7 1016.1 - 0.0
23/07:00am 13.0 12.4 11.6 91 0.7 W 6 11 3 6 1015.7 - 0.0
23/06:30am 13.1 13.6 11.7 91 0.7 CALM 0 0 0 0 1015.8 - 0.0
23/06:00am 13.6 12.8 11.7 88 1.0 WSW 7 9 4 5 1015.7 1015.6 0.0
23/05:30am 13.8 12.6 11.7 87 1.1 W 9 11 5 6 1015.4 - 0.0
23/05:00am 14.5 14.4 12.2 86 1.3 NW 4 7 2 4 1015.3 - 0.0
23/04:30am 14.7 13.6 11.8 83 1.6 W 9 15 5 8 1015.3 - 0.0
23/04:00am 14.2 13.9 11.4 83 1.5 W 4 11 2 6 1015.1 - 0.0
23/03:30am 14.5 13.6 10.5 77 2.1 W 6 7 3 4 1015.1 - 0.0
23/03:00am 15.1 13.6 10.7 75 2.3 WSW 9 11 5 6 1015.3 1015.1 0.0
23/02:30am 14.7 13.2 10.5 76 2.2 W 9 11 5 6 1015.4 - 0.0
23/02:00am 14.3 14.3 9.9 75 2.3 CALM 0 0 0 0 1015.2 - 0.0
23/01:30am 15.5 13.9 10.3 71 2.7 WSW 9 11 5 6 1015.6 - 0.0
23/01:00am 15.1 13.4 9.9 71 2.7 WNW 9 11 5 6 1015.6 - 0.0
23/12:30am 14.8 13.6 10.2 74 2.4 W 7 9 4 5 1015.6 - 0.0
23/12:00am 14.6 13.3 10.0 74 2.4 NW 7 7 4 4 1015.7 1015.6 0.0
 
Date/Time
EST
Temp
°C
App
Temp
°C
Dew
Point
Rel
Hum
%
Delta-T
°C
Wind Press
QNH
hPa
Press
MSL
hPa
Rain
since 9 am
mm
Dir
 
Spd
km/h
Gust
km/h
Spd
kts
Gust
kts
22/11:30pm 14.7 13.4 10.1 74 2.4 NW 7 9 4 5 1015.9 - 0.0
22/11:00pm 15.5 15.6 10.3 71 2.7 CALM 0 0 0 0 1015.8 - 0.0
22/10:30pm 16.2 16.3 10.1 67 3.2 CALM 0 0 0 0 1016.0 - 0.0
22/10:00pm 17.9 16.4 10.5 62 4.0 WSW 9 13 5 7 1016.2 - 0.0
22/09:30pm 18.1 16.8 10.0 59 4.3 SW 7 7 4 4 1016.2 - 0.0
22/09:00pm 18.7 17.0 9.8 56 4.7 SSW 9 13 5 7 1016.0 1015.9 0.0
22/08:30pm 20.9 18.6 10.4 51 5.7 SW 13 17 7 9 1016.2 - 0.0
22/08:00pm 21.5 19.3 9.4 46 6.5 N 11 15 6 8 1015.9 - 0.0
22/07:30pm 22.5 18.7 9.0 42 7.2 SW 19 24 10 13 1015.2 - 0.0
22/07:00pm 23.4 19.3 7.9 37 8.2 WSW 19 22 10 12 1014.9 - 0.0
22/06:30pm 24.0 20.2 7.6 35 8.7 SSW 17 20 9 11 1014.0 - 0.0
22/06:00pm 24.5 20.1 6.7 32 9.3 WSW 19 24 10 13 1013.6 1013.4 0.0
22/05:30pm 27.0 23.6 5.9 26 11.0 NW 13 19 7 10 1013.1 - 0.0
22/05:00pm 27.5 23.7 5.7 25 11.4 NW 15 24 8 13 1013.1 - 0.0
22/04:30pm 28.1 22.4 5.0 23 11.9 NW 24 30 13 16 1013.1 - 0.0
22/04:00pm 28.5 22.6 6.0 24 11.8 NW 26 33 14 18 1013.1 - 0.0
22/03:30pm 29.3 23.4 6.0 23 12.3 NNW 26 35 14 19 1013.2 - 0.0
22/03:00pm 29.3 23.4 6.0 23 12.3 NW 26 33 14 18 1013.3 1013.1 0.0
22/02:44pm 30.1 23.9 6.1 22 12.8 NW 28 54 15 29 1013.3 - 0.0
22/02:30pm 29.6 23.1 6.3 23 12.4 NW 30 41 16 22 1013.4 - 0.0
22/02:00pm 28.5 23.9 6.6 25 11.7 NNW 20 32 11 17 1013.6 - 0.0
22/01:30pm 29.4 23.8 7.3 25 12.0 NNW 26 37 14 20 1013.8 - 0.0
22/01:00pm 28.6 22.5 6.7 25 11.7 NNW 28 39 15 21 1014.4 - 0.0
22/12:30pm 27.9 21.4 6.6 26 11.3 NNW 30 44 16 24 1015.0 - 0.0
22/12:00pm 27.1 20.2 6.5 27 10.8 NNW 32 41 17 22 1015.5 1015.3 0.0
22/11:30am 26.3 19.9 6.9 29 10.2 NNW 30 41 16 22 1016.0 - 0.0
22/11:00am 23.5 17.7 6.3 33 8.8 N 26 33 14 18 1016.3 - 0.0
22/10:30am 22.8 17.3 6.1 34 8.5 N 24 33 13 18 1016.7 - 0.0
22/10:00am 22.0 16.2 6.3 36 8.0 N 26 35 14 19 1017.0 - 0.0
22/09:30am 19.9 14.5 6.3 41 6.8 N 24 33 13 18 1017.1 - 0.0
22/09:00am 18.6 14.1 6.8 46 5.9 N 20 26 11 14 1017.2 1017.1 0.0
22/08:30am 15.5 11.0 6.8 56 4.3 N 20 28 11 15 1017.4 - 0.0
22/08:00am 14.7 10.2 6.8 59 3.9 N 20 30 11 16 1017.3 - 0.0
22/07:30am 14.3 9.7 6.6 60 3.7 N 20 30 11 16 1016.7 - 0.0
22/07:00am 13.5 8.9 6.4 62 3.4 N 20 26 11 14 1016.6 - 0.0
22/06:30am 13.8 9.2 6.7 62 3.4 N 20 28 11 15 1016.5 - 0.0
22/06:00am 13.8 9.2 6.4 61 3.6 NNE 20 26 11 14 1016.5 1016.4 0.0
22/05:30am 13.8 9.4 6.4 61 3.6 N 19 22 10 12 1016.6 - 0.0
22/05:00am 14.1 9.7 6.5 60 3.7 NNE 19 24 10 13 1016.5 - 0.0
22/04:30am 14.3 9.6 6.2 58 3.9 N 20 26 11 14 1016.4 - 0.0
22/04:00am 14.6 9.9 6.2 57 4.1 NNE 20 26 11 14 1016.1 - 0.0
22/03:30am 15.0 9.5 6.0 55 4.3 NNE 24 30 13 16 1016.1 - 0.0
22/03:00am 15.7 10.3 6.2 53 4.6 NNE 24 30 13 16 1016.2 1016.1 0.0
22/02:30am 16.0 10.1 5.9 51 4.9 N 26 33 14 18 1016.5 - 0.0
22/02:00am 16.0 10.4 5.6 50 5.0 NNE 24 32 13 17 1016.8 - 0.0
22/01:30am 16.3 10.7 5.6 49 5.2 NNE 24 30 13 16 1016.9 - 0.0
22/01:00am 16.3 11.6 5.9 50 5.1 NNE 20 32 11 17 1017.1 - 0.0
22/12:30am 16.3 11.8 5.9 50 5.1 NNE 19 24 10 13 1017.2 - 0.0
22/12:00am 16.4 12.3 6.0 50 5.1 NE 17 22 9 12 1017.3 1017.2 0.0
 
Date/Time
EST
Temp
°C
App
Temp
°C
Dew
Point
Rel
Hum
%
Delta-T
°C
Wind Press
QNH
hPa
Press
MSL
hPa
Rain
since 9 am
mm
Dir
 
Spd
km/h
Gust
km/h
Spd
kts
Gust
kts
21/11:30pm 16.9 12.4 6.1 49 5.3 NNE 19 22 10 12 1017.6 - 0.0
21/11:00pm 17.0 12.9 6.2 49 5.3 NNE 17 22 9 12 1017.9 - 0.0
21/10:30pm 17.2 13.1 6.1 48 5.4 NNE 17 20 9 11 1018.1 - 0.0
21/10:00pm 17.1 13.0 6.0 48 5.4 NNE 17 20 9 11 1018.2 - 0.0
21/09:30pm 17.2 13.5 6.1 48 5.4 NE 15 19 8 10 1018.1 - 0.0
21/09:00pm 17.5 13.8 6.1 47 5.6 NE 15 19 8 10 1018.0 1017.9 0.0
21/08:30pm 17.3 13.5 5.9 47 5.6 NE 15 17 8 9 1018.0 - 0.0
21/08:00pm 18.1 14.3 6.0 45 6.0 NNE 15 19 8 10 1018.1 - 0.0
21/07:30pm 18.1 14.7 6.0 45 6.0 NE 13 17 7 9 1018.1 - 0.0
21/07:00pm 17.9 14.5 5.8 45 5.9 NNE 13 17 7 9 1018.0 - 0.0
21/06:30pm 18.5 15.4 5.4 42 6.4 NNE 11 13 6 7 1018.0 - 0.0
21/06:00pm 19.9 16.7 5.2 38 7.2 NNE 11 13 6 7 1017.8 1017.7 0.0
21/05:30pm 21.4 17.6 5.7 36 7.9 NNE 15 17 8 9 1017.6 - 0.0
21/05:00pm 22.7 18.4 5.2 32 8.8 N 17 22 9 12 1017.5 - 0.0
21/04:30pm 23.2 19.4 5.6 32 8.9 N 15 20 8 11 1017.5 - 0.0
21/04:00pm 23.3 19.0 5.2 31 9.1 N 17 24 9 13 1017.8 - 0.0
21/03:30pm 23.3 18.6 5.2 31 9.1 N 19 24 10 13 1017.9 - 0.0
21/03:00pm 23.2 18.5 5.1 31 9.1 N 19 26 10 14 1018.1 1018.0 0.0
21/02:30pm 23.1 18.8 5.1 31 9.0 N 17 26 9 14 1018.2 - 0.0
21/02:00pm 22.5 18.1 4.5 31 8.9 N 17 24 9 13 1018.4 - 0.0
21/01:30pm 21.8 17.7 4.4 32 8.5 N 15 24 8 13 1018.7 - 0.0
21/01:00pm 21.2 17.5 4.3 33 8.2 N 13 22 7 12 1019.0 - 0.0
21/12:30pm 22.0 17.9 4.6 32 8.6 N 15 24 8 13 1019.6 - 0.0
21/12:00pm 20.9 16.5 4.5 34 8.0 NNE 17 28 9 15 1020.3 1020.2 0.0
21/11:30am 19.7 14.5 3.8 35 7.6 NNE 20 28 11 15 1020.3 - 0.0
21/11:00am 19.6 14.2 4.5 37 7.3 N 22 28 12 15 1020.6 - 0.0
21/10:30am 18.3 13.3 4.8 41 6.5 N 20 26 11 14 1021.0 - 0.0
21/10:00am 17.6 12.6 4.5 42 6.2 N 20 28 11 15 1021.6 - 0.0
21/09:30am 16.7 11.9 4.7 45 5.7 N 19 28 10 15 1021.9 - 0.0
21/09:00am 15.1 10.3 4.5 49 4.9 NNE 19 26 10 14 1021.5 1021.4 0.0
21/08:30am 14.2 9.4 4.5 52 4.5 NNE 19 22 10 12 1021.3 - 0.0
21/08:00am 12.6 8.1 4.1 56 3.9 NNE 17 26 9 14 1021.2 - 0.0
21/07:30am 10.3 6.2 4.5 67 2.6 N 15 17 8 9 1021.2 - 0.0
21/07:00am 7.6 4.4 3.1 73 1.9 NNE 9 11 5 6 1021.1 - 0.0
21/06:30am 8.8 5.4 3.8 71 2.2 N 11 15 6 8 1021.1 - 0.0
21/06:00am 9.1 5.3 3.7 69 2.3 NE 13 17 7 9 1020.6 1020.5 0.0
21/05:30am 9.4 5.6 3.8 68 2.5 NE 13 15 7 8 1020.4 - 0.0
21/05:00am 9.6 5.4 3.8 67 2.5 NE 15 15 8 8 1020.2 - 0.0
21/04:30am 9.9 6.0 3.6 65 2.8 NNE 13 17 7 9 1020.1 - 0.0
21/04:00am 9.3 5.5 3.9 69 2.4 NNE 13 15 7 8 1019.8 - 0.0
21/03:30am 8.6 5.0 3.2 69 2.3 NNE 11 13 6 7 1019.8 - 0.0
21/03:00am 9.2 5.7 3.6 68 2.4 NE 11 13 6 7 1019.9 1019.8 0.0
21/02:30am 9.8 5.9 3.5 65 2.8 NE 13 15 7 8 1020.0 - 0.0
21/02:00am 10.2 5.9 3.5 63 2.9 NE 15 17 8 9 1020.1 - 0.0
21/01:30am 9.3 5.7 3.1 65 2.7 NE 11 15 6 8 1020.2 - 0.0
21/01:00am 8.9 5.0 3.3 68 2.4 ENE 13 15 7 8 1020.2 - 0.0
21/12:30am 8.0 4.7 2.7 69 2.2 ENE 9 11 5 6 1020.2 - 0.0
21/12:00am 8.0 4.7 2.5 68 2.3 ENE 9 11 5 6 1020.3 1020.2 0.0
 
Date/Time
EST
Temp
°C
App
Temp
°C
Dew
Point
Rel
Hum
%
Delta-T
°C
Wind Press
QNH
hPa
Press
MSL
hPa
Rain
since 9 am
mm
Dir
 
Spd
km/h
Gust
km/h
Spd
kts
Gust
kts
20/11:30pm 8.2 4.5 2.4 67 2.4 E 11 13 6 7 1020.3 - 0.0
20/11:00pm 7.9 4.5 1.7 65 2.6 ESE 9 11 5 6 1020.4 - 0.0
20/10:30pm 8.8 5.5 2.2 63 2.8 E 9 9 5 5 1020.5 - 0.0
20/10:00pm 9.0 5.9 1.4 59 3.1 ESE 7 9 4 5 1020.7 - 0.0
20/09:30pm 10.1 6.7 2.0 57 3.4 ESE 9 11 5 6 1020.5 - 0.0
20/09:00pm 11.0 7.3 2.3 55 3.7 ESE 11 11 6 6 1020.2 1020.1 0.0
20/08:30pm 11.5 8.1 2.0 52 4.1 SE 9 13 5 7 1020.1 - 0.0
20/08:00pm 12.4 8.7 2.6 51 4.3 SSE 11 11 6 6 1019.8 - 0.0
20/07:30pm 13.8 10.3 3.3 49 4.7 S 11 13 6 7 1019.5 - 0.0
20/07:00pm 13.8 10.2 3.0 48 4.8 S 11 13 6 7 1019.2 - 0.0
20/06:30pm 14.6 11.4 2.8 45 5.3 SSW 9 11 5 6 1019.0 - 0.0

Other Formats:

Comma delimited format used in spreadsheet applications
http://www.bom.gov.au/fwo/IDN60801/IDN60801.94702.axf

JavaScript Object Notation format (JSON) in row-major order
http://www.bom.gov.au/fwo/IDN60801/IDN60801.94702.json